This is the latest recevied weather packets stored in our database for station/object EA5GTE-12. If no packets are shown the sender has not sent any weather packets the latest 10 day(s).
| Time | Temp. | Humidity | Pressure | Rain* | Wind** | Luminosity | Snow |
|---|---|---|---|---|---|---|---|
| 1787561590 | 28.33° C | 57% | 939.1 hPa | - | - | - | - |
| 1787560690 | 29.44° C | 56% | 939.1 hPa | - | - | - | - |
| 1787559790 | 24.44° C | 83% | 939.2 hPa | - | - | - | - |
| 1787558890 | 25° C | 82% | 939.2 hPa | - | - | - | - |
| 1787557990 | 27.22° C | 70% | 939.1 hPa | - | - | - | - |
| 1787557090 | 20.56° C | 100% | 939.5 hPa | - | - | - | - |
| 1787556190 | 21.11° C | 100% | 939.6 hPa | - | - | - | - |
| 1787555290 | 21.67° C | 100% | 939.5 hPa | - | - | - | - |
| 1787554390 | 23.89° C | 100% | 939.4 hPa | - | - | - | - |
| 1787553490 | 22.22° C | 100% | 939.4 hPa | - | - | - | - |
| 1787552589 | 19.44° C | 100% | 939.4 hPa | - | - | - | - |
| 1787551689 | 19.44° C | 100% | 939.5 hPa | - | - | - | - |
| 1787550789 | 18.89° C | 100% | 939.2 hPa | - | - | - | - |
| 1787549889 | 18.33° C | 100% | 939 hPa | - | - | - | - |
| 1787548990 | 17.78° C | 100% | 939.1 hPa | - | - | - | - |
| 1787548089 | 18.33° C | 100% | 939.1 hPa | - | - | - | - |
| 1787547189 | 18.89° C | 100% | 939 hPa | - | - | - | - |
| 1787546289 | 19.44° C | 100% | 938.9 hPa | - | - | - | - |
| 1787544489 | 19.44° C | 100% | 938.7 hPa | - | - | - | - |
| 1787543589 | 19.44° C | 100% | 938.8 hPa | - | - | - | - |
| 1787542689 | 19.44° C | 100% | 938.8 hPa | - | - | - | - |
| 1787541789 | 20° C | 100% | 938.7 hPa | - | - | - | - |
| 1787540889 | 20° C | 100% | 938.8 hPa | - | - | - | - |
| 1787539989 | 20° C | 100% | 938.9 hPa | - | - | - | - |
| 1787539089 | 20° C | 100% | 938.8 hPa | - | - | - | - |
* Rain since midnight (hover to see other rain measurements)
** Current wind speed in m/s (hover to see current wind gust speed)